sensor_id;sensor_type;location;lat;lon;timestamp;temperature;humidity
45535;DHT22;35892;48.798;9.698;2022-07-21T00:00:56;19.50;99.90
45535;DHT22;35892;48.798;9.698;2022-07-21T00:03:23;19.60;99.90
45535;DHT22;35892;48.798;9.698;2022-07-21T00:05:50;19.50;99.90
45535;DHT22;35892;48.798;9.698;2022-07-21T00:08:17;19.50;99.90
45535;DHT22;35892;48.798;9.698;2022-07-21T00:10:44;19.50;99.90
45535;DHT22;35892;48.798;9.698;2022-07-21T00:13:11;19.50;99.90
45535;DHT22;35892;48.798;9.698;2022-07-21T00:15:43;19.50;99.90
45535;DHT22;35892;48.798;9.698;2022-07-21T00:18:10;19.50;99.90
45535;DHT22;35892;48.798;9.698;2022-07-21T00:20:37;19.50;99.90
45535;DHT22;35892;48.798;9.698;2022-07-21T00:23:04;19.60;99.90
45535;DHT22;35892;48.798;9.698;2022-07-21T00:25:31;19.60;99.90
45535;DHT22;35892;48.798;9.698;2022-07-21T00:28:03;19.70;99.90
45535;DHT22;35892;48.798;9.698;2022-07-21T00:30:30;19.70;99.90
45535;DHT22;35892;48.798;9.698;2022-07-21T00:32:57;19.70;99.90
45535;DHT22;35892;48.798;9.698;2022-07-21T00:35:25;19.60;99.90
45535;DHT22;35892;48.798;9.698;2022-07-21T00:37:51;19.40;99.90
45535;DHT22;35892;48.798;9.698;2022-07-21T00:40:18;19.40;99.90
45535;DHT22;35892;48.798;9.698;2022-07-21T00:42:46;19.40;99.90
45535;DHT22;35892;48.798;9.698;2022-07-21T00:45:12;19.30;99.90
45535;DHT22;35892;48.798;9.698;2022-07-21T00:47:41;19.30;99.90
45535;DHT22;35892;48.798;9.698;2022-07-21T00:50:14;19.30;99.90
45535;DHT22;35892;48.798;9.698;2022-07-21T00:52:44;19.30;99.90
45535;DHT22;35892;48.798;9.698;2022-07-21T00:55:18;19.30;99.90
45535;DHT22;35892;48.798;9.698;2022-07-21T00:57:46;19.40;99.90
45535;DHT22;35892;48.798;9.698;2022-07-21T01:00:18;19.40;99.90
45535;DHT22;35892;48.798;9.698;2022-07-21T01:02:45;19.30;99.90
45535;DHT22;35892;48.798;9.698;2022-07-21T01:05:13;19.20;99.90
45535;DHT22;35892;48.798;9.698;2022-07-21T01:07:46;19.30;99.90
45535;DHT22;35892;48.798;9.698;2022-07-21T01:10:17;19.30;99.90
45535;DHT22;35892;48.798;9.698;2022-07-21T01:12:45;19.30;99.90
45535;DHT22;35892;48.798;9.698;2022-07-21T01:15:14;19.50;99.90
45535;DHT22;35892;48.798;9.698;2022-07-21T01:17:41;19.50;99.90
45535;DHT22;35892;48.798;9.698;2022-07-21T01:20:12;19.40;99.90
45535;DHT22;35892;48.798;9.698;2022-07-21T01:22:46;19.40;99.90
45535;DHT22;35892;48.798;9.698;2022-07-21T01:25:19;19.40;99.90
45535;DHT22;35892;48.798;9.698;2022-07-21T01:27:46;19.30;99.90
45535;DHT22;35892;48.798;9.698;2022-07-21T01:30:14;19.40;99.90
45535;DHT22;35892;48.798;9.698;2022-07-21T01:32:44;19.40;99.90
45535;DHT22;35892;48.798;9.698;2022-07-21T01:35:15;19.40;99.90
45535;DHT22;35892;48.798;9.698;2022-07-21T01:37:44;19.40;99.90
45535;DHT22;35892;48.798;9.698;2022-07-21T01:40:12;19.40;99.90
45535;DHT22;35892;48.798;9.698;2022-07-21T01:42:58;19.40;99.90
45535;DHT22;35892;48.798;9.698;2022-07-21T01:45:26;19.40;99.90
45535;DHT22;35892;48.798;9.698;2022-07-21T01:47:56;19.40;99.90
45535;DHT22;35892;48.798;9.698;2022-07-21T01:50:23;19.40;99.90
45535;DHT22;35892;48.798;9.698;2022-07-21T01:52:55;19.30;99.90
45535;DHT22;35892;48.798;9.698;2022-07-21T01:55:25;19.20;99.90
45535;DHT22;35892;48.798;9.698;2022-07-21T01:57:55;19.20;99.90
45535;DHT22;35892;48.798;9.698;2022-07-21T02:00:21;19.30;99.90
45535;DHT22;35892;48.798;9.698;2022-07-21T02:02:48;19.30;99.90
45535;DHT22;35892;48.798;9.698;2022-07-21T02:05:15;19.30;99.90
45535;DHT22;35892;48.798;9.698;2022-07-21T02:07:42;19.40;99.90
45535;DHT22;35892;48.798;9.698;2022-07-21T02:10:11;19.30;99.90
45535;DHT22;35892;48.798;9.698;2022-07-21T02:12:37;19.30;99.90
45535;DHT22;35892;48.798;9.698;2022-07-21T02:15:05;19.40;99.90
45535;DHT22;35892;48.798;9.698;2022-07-21T02:17:32;19.40;99.90
45535;DHT22;35892;48.798;9.698;2022-07-21T02:20:03;19.50;99.90
45535;DHT22;35892;48.798;9.698;2022-07-21T02:22:30;19.50;99.90
45535;DHT22;35892;48.798;9.698;2022-07-21T02:25:02;19.60;99.90
45535;DHT22;35892;48.798;9.698;2022-07-21T02:27:29;19.50;99.90
45535;DHT22;35892;48.798;9.698;2022-07-21T02:29:55;19.60;99.90
45535;DHT22;35892;48.798;9.698;2022-07-21T02:32:22;19.60;99.90
45535;DHT22;35892;48.798;9.698;2022-07-21T02:34:49;19.60;99.90
45535;DHT22;35892;48.798;9.698;2022-07-21T02:37:16;19.60;99.90
45535;DHT22;35892;48.798;9.698;2022-07-21T02:39:45;19.60;99.90
45535;DHT22;35892;48.798;9.698;2022-07-21T02:42:12;19.60;99.90
45535;DHT22;35892;48.798;9.698;2022-07-21T02:44:39;19.70;99.90
45535;DHT22;35892;48.798;9.698;2022-07-21T02:47:08;19.70;99.90
45535;DHT22;35892;48.798;9.698;2022-07-21T02:49:35;19.70;99.90
45535;DHT22;35892;48.798;9.698;2022-07-21T02:52:04;19.70;99.90
45535;DHT22;35892;48.798;9.698;2022-07-21T02:54:32;19.80;99.90
45535;DHT22;35892;48.798;9.698;2022-07-21T02:57:01;19.80;99.90
45535;DHT22;35892;48.798;9.698;2022-07-21T02:59:33;19.70;99.90
45535;DHT22;35892;48.798;9.698;2022-07-21T03:01:59;19.70;99.90
45535;DHT22;35892;48.798;9.698;2022-07-21T03:04:26;19.80;99.90
45535;DHT22;35892;48.798;9.698;2022-07-21T03:06:53;19.70;99.90
45535;DHT22;35892;48.798;9.698;2022-07-21T03:09:20;19.70;99.90
45535;DHT22;35892;48.798;9.698;2022-07-21T03:11:53;19.70;99.90
45535;DHT22;35892;48.798;9.698;2022-07-21T03:14:22;19.80;99.90
45535;DHT22;35892;48.798;9.698;2022-07-21T03:16:49;19.70;99.90
45535;DHT22;35892;48.798;9.698;2022-07-21T03:19:17;19.60;99.90
45535;DHT22;35892;48.798;9.698;2022-07-21T03:21:44;19.60;99.90
45535;DHT22;35892;48.798;9.698;2022-07-21T03:24:10;19.70;99.90
45535;DHT22;35892;48.798;9.698;2022-07-21T03:26:40;19.70;99.90
45535;DHT22;35892;48.798;9.698;2022-07-21T03:29:06;19.60;99.90
45535;DHT22;35892;48.798;9.698;2022-07-21T03:31:33;19.70;99.90
45535;DHT22;35892;48.798;9.698;2022-07-21T03:34:00;19.70;99.90
45535;DHT22;35892;48.798;9.698;2022-07-21T03:36:29;19.70;99.90
45535;DHT22;35892;48.798;9.698;2022-07-21T03:39:03;19.70;99.90
45535;DHT22;35892;48.798;9.698;2022-07-21T03:41:30;19.70;99.90
45535;DHT22;35892;48.798;9.698;2022-07-21T03:43:56;19.70;99.90
45535;DHT22;35892;48.798;9.698;2022-07-21T03:46:23;19.70;99.90
45535;DHT22;35892;48.798;9.698;2022-07-21T03:48:52;19.70;99.90
45535;DHT22;35892;48.798;9.698;2022-07-21T03:51:19;19.60;99.90
45535;DHT22;35892;48.798;9.698;2022-07-21T03:53:48;19.60;99.90
45535;DHT22;35892;48.798;9.698;2022-07-21T03:56:19;19.60;99.90
45535;DHT22;35892;48.798;9.698;2022-07-21T03:58:46;19.60;99.90
45535;DHT22;35892;48.798;9.698;2022-07-21T04:01:13;19.60;99.90
45535;DHT22;35892;48.798;9.698;2022-07-21T04:03:40;19.70;99.90
45535;DHT22;35892;48.798;9.698;2022-07-21T04:06:06;19.70;99.90
45535;DHT22;35892;48.798;9.698;2022-07-21T04:08:39;19.70;99.90
45535;DHT22;35892;48.798;9.698;2022-07-21T04:11:06;19.70;99.90
45535;DHT22;35892;48.798;9.698;2022-07-21T04:13:35;19.70;99.90
45535;DHT22;35892;48.798;9.698;2022-07-21T04:16:01;19.80;99.90
45535;DHT22;35892;48.798;9.698;2022-07-21T04:18:28;19.80;99.90
45535;DHT22;35892;48.798;9.698;2022-07-21T04:20:57;19.80;99.90
45535;DHT22;35892;48.798;9.698;2022-07-21T04:23:26;19.80;99.90
45535;DHT22;35892;48.798;9.698;2022-07-21T04:25:53;19.80;99.90
45535;DHT22;35892;48.798;9.698;2022-07-21T04:28:20;19.80;99.90
45535;DHT22;35892;48.798;9.698;2022-07-21T04:30:47;19.80;99.90
45535;DHT22;35892;48.798;9.698;2022-07-21T04:33:16;19.80;99.90
45535;DHT22;35892;48.798;9.698;2022-07-21T04:35:43;19.90;99.90
45535;DHT22;35892;48.798;9.698;2022-07-21T04:38:09;19.90;99.90
45535;DHT22;35892;48.798;9.698;2022-07-21T04:40:39;19.90;99.90
45535;DHT22;35892;48.798;9.698;2022-07-21T04:43:06;19.90;99.90
45535;DHT22;35892;48.798;9.698;2022-07-21T04:45:36;19.90;99.90
45535;DHT22;35892;48.798;9.698;2022-07-21T04:48:03;19.90;99.90
45535;DHT22;35892;48.798;9.698;2022-07-21T04:50:34;20.00;99.90
45535;DHT22;35892;48.798;9.698;2022-07-21T04:53:01;20.00;99.90
45535;DHT22;35892;48.798;9.698;2022-07-21T04:55:30;20.10;99.90
45535;DHT22;35892;48.798;9.698;2022-07-21T04:57:57;20.10;99.90
45535;DHT22;35892;48.798;9.698;2022-07-21T05:00:25;20.10;99.90
45535;DHT22;35892;48.798;9.698;2022-07-21T05:02:58;20.10;99.90
45535;DHT22;35892;48.798;9.698;2022-07-21T05:05:25;20.10;99.90
45535;DHT22;35892;48.798;9.698;2022-07-21T05:07:55;20.10;99.90
45535;DHT22;35892;48.798;9.698;2022-07-21T05:10:22;20.10;99.90
45535;DHT22;35892;48.798;9.698;2022-07-21T05:12:49;20.10;99.90
45535;DHT22;35892;48.798;9.698;2022-07-21T05:15:16;20.10;99.90
45535;DHT22;35892;48.798;9.698;2022-07-21T05:17:44;20.10;99.90
45535;DHT22;35892;48.798;9.698;2022-07-21T05:20:13;20.20;99.90
45535;DHT22;35892;48.798;9.698;2022-07-21T05:22:40;20.20;99.90
45535;DHT22;35892;48.798;9.698;2022-07-21T05:25:09;20.30;99.90
45535;DHT22;35892;48.798;9.698;2022-07-21T05:27:36;20.40;99.90
45535;DHT22;35892;48.798;9.698;2022-07-21T05:30:04;20.50;99.90
45535;DHT22;35892;48.798;9.698;2022-07-21T05:32:31;20.50;99.90
45535;DHT22;35892;48.798;9.698;2022-07-21T05:34:58;20.50;99.90
45535;DHT22;35892;48.798;9.698;2022-07-21T05:37:27;20.60;99.90
45535;DHT22;35892;48.798;9.698;2022-07-21T05:39:56;20.70;99.90
45535;DHT22;35892;48.798;9.698;2022-07-21T05:42:23;20.80;99.90
45535;DHT22;35892;48.798;9.698;2022-07-21T05:44:52;21.00;99.90
45535;DHT22;35892;48.798;9.698;2022-07-21T05:47:19;21.10;99.90
45535;DHT22;35892;48.798;9.698;2022-07-21T05:49:48;21.20;99.90
45535;DHT22;35892;48.798;9.698;2022-07-21T05:52:14;21.30;99.90
45535;DHT22;35892;48.798;9.698;2022-07-21T05:54:47;21.30;99.90
45535;DHT22;35892;48.798;9.698;2022-07-21T05:57:14;21.10;99.90
45535;DHT22;35892;48.798;9.698;2022-07-21T05:59:41;20.90;99.90
45535;DHT22;35892;48.798;9.698;2022-07-21T06:02:08;20.90;99.90
45535;DHT22;35892;48.798;9.698;2022-07-21T06:04:37;20.80;99.90
45535;DHT22;35892;48.798;9.698;2022-07-21T06:07:06;20.90;99.90
45535;DHT22;35892;48.798;9.698;2022-07-21T06:09:33;20.90;99.90
45535;DHT22;35892;48.798;9.698;2022-07-21T06:12:02;21.10;99.90
45535;DHT22;35892;48.798;9.698;2022-07-21T06:14:32;21.30;99.90
45535;DHT22;35892;48.798;9.698;2022-07-21T06:16:59;21.60;99.90
45535;DHT22;35892;48.798;9.698;2022-07-21T06:19:28;21.60;99.90
45535;DHT22;35892;48.798;9.698;2022-07-21T06:21:57;21.50;99.90
45535;DHT22;35892;48.798;9.698;2022-07-21T06:24:28;21.50;99.90
45535;DHT22;35892;48.798;9.698;2022-07-21T06:26:55;21.60;99.90
45535;DHT22;35892;48.798;9.698;2022-07-21T06:29:31;21.80;99.90
45535;DHT22;35892;48.798;9.698;2022-07-21T06:31:58;21.90;99.90
45535;DHT22;35892;48.798;9.698;2022-07-21T06:34:28;21.90;99.90
45535;DHT22;35892;48.798;9.698;2022-07-21T06:36:57;21.80;99.90
45535;DHT22;35892;48.798;9.698;2022-07-21T06:39:24;21.90;99.90
45535;DHT22;35892;48.798;9.698;2022-07-21T06:41:53;22.00;99.90
45535;DHT22;35892;48.798;9.698;2022-07-21T06:44:24;22.10;99.90
45535;DHT22;35892;48.798;9.698;2022-07-21T06:49:24;22.00;99.90
45535;DHT22;35892;48.798;9.698;2022-07-21T06:51:51;21.90;99.90
45535;DHT22;35892;48.798;9.698;2022-07-21T06:54:17;21.70;99.90
45535;DHT22;35892;48.798;9.698;2022-07-21T06:56:46;21.60;99.90
45535;DHT22;35892;48.798;9.698;2022-07-21T06:59:13;21.50;99.90
45535;DHT22;35892;48.798;9.698;2022-07-21T07:01:40;21.60;99.90
45535;DHT22;35892;48.798;9.698;2022-07-21T07:04:08;21.70;99.90
45535;DHT22;35892;48.798;9.698;2022-07-21T07:06:37;22.00;99.90
45535;DHT22;35892;48.798;9.698;2022-07-21T07:09:04;22.10;99.90
45535;DHT22;35892;48.798;9.698;2022-07-21T07:11:34;22.10;99.90
45535;DHT22;35892;48.798;9.698;2022-07-21T07:14:01;22.20;99.90
45535;DHT22;35892;48.798;9.698;2022-07-21T07:16:42;22.20;99.90
45535;DHT22;35892;48.798;9.698;2022-07-21T07:19:12;22.40;99.90
45535;DHT22;35892;48.798;9.698;2022-07-21T07:21:38;22.40;99.90
45535;DHT22;35892;48.798;9.698;2022-07-21T07:24:08;22.50;99.90
45535;DHT22;35892;48.798;9.698;2022-07-21T07:26:34;22.60;99.90
45535;DHT22;35892;48.798;9.698;2022-07-21T07:29:06;22.60;99.90
45535;DHT22;35892;48.798;9.698;2022-07-21T07:31:35;22.70;99.90
45535;DHT22;35892;48.798;9.698;2022-07-21T07:34:02;22.70;99.90
45535;DHT22;35892;48.798;9.698;2022-07-21T07:36:32;22.80;99.90
45535;DHT22;35892;48.798;9.698;2022-07-21T07:38:59;22.80;99.90
45535;DHT22;35892;48.798;9.698;2022-07-21T07:41:29;22.80;99.90
45535;DHT22;35892;48.798;9.698;2022-07-21T07:43:58;22.80;99.90
45535;DHT22;35892;48.798;9.698;2022-07-21T07:46:27;22.90;99.90
45535;DHT22;35892;48.798;9.698;2022-07-21T07:48:56;22.90;99.90
45535;DHT22;35892;48.798;9.698;2022-07-21T07:51:31;23.10;99.90
45535;DHT22;35892;48.798;9.698;2022-07-21T07:53:58;23.30;99.90
45535;DHT22;35892;48.798;9.698;2022-07-21T07:56:27;23.30;99.90
45535;DHT22;35892;48.798;9.698;2022-07-21T07:58:54;23.10;99.90
45535;DHT22;35892;48.798;9.698;2022-07-21T08:01:20;23.00;99.90
45535;DHT22;35892;48.798;9.698;2022-07-21T08:03:48;23.10;99.90
45535;DHT22;35892;48.798;9.698;2022-07-21T08:06:15;23.10;99.90
45535;DHT22;35892;48.798;9.698;2022-07-21T08:08:42;23.20;99.90
45535;DHT22;35892;48.798;9.698;2022-07-21T08:11:09;23.70;99.90
45535;DHT22;35892;48.798;9.698;2022-07-21T08:13:36;24.00;99.90
45535;DHT22;35892;48.798;9.698;2022-07-21T08:16:04;24.20;99.90
45535;DHT22;35892;48.798;9.698;2022-07-21T08:18:31;24.50;99.90
45535;DHT22;35892;48.798;9.698;2022-07-21T08:20:57;24.80;99.90
45535;DHT22;35892;48.798;9.698;2022-07-21T08:23:24;24.60;99.90
45535;DHT22;35892;48.798;9.698;2022-07-21T08:25:51;24.40;99.90
45535;DHT22;35892;48.798;9.698;2022-07-21T08:28:18;24.10;99.90
45535;DHT22;35892;48.798;9.698;2022-07-21T08:30:47;23.80;99.90
45535;DHT22;35892;48.798;9.698;2022-07-21T08:33:16;23.60;99.90
45535;DHT22;35892;48.798;9.698;2022-07-21T08:35:43;23.50;99.90
45535;DHT22;35892;48.798;9.698;2022-07-21T08:38:11;23.70;99.90
45535;DHT22;35892;48.798;9.698;2022-07-21T08:40:41;23.80;99.90
45535;DHT22;35892;48.798;9.698;2022-07-21T08:43:09;23.90;99.90
45535;DHT22;35892;48.798;9.698;2022-07-21T08:45:39;24.00;99.90
45535;DHT22;35892;48.798;9.698;2022-07-21T08:48:07;24.40;99.90
45535;DHT22;35892;48.798;9.698;2022-07-21T08:50:42;24.70;99.90
45535;DHT22;35892;48.798;9.698;2022-07-21T08:53:09;25.00;99.90
45535;DHT22;35892;48.798;9.698;2022-07-21T08:55:38;25.20;99.90
45535;DHT22;35892;48.798;9.698;2022-07-21T08:58:11;25.10;99.90
45535;DHT22;35892;48.798;9.698;2022-07-21T09:00:42;25.10;99.90
45535;DHT22;35892;48.798;9.698;2022-07-21T09:05:41;25.30;99.90
45535;DHT22;35892;48.798;9.698;2022-07-21T09:08:10;25.30;99.90
45535;DHT22;35892;48.798;9.698;2022-07-21T09:10:39;25.30;99.90
45535;DHT22;35892;48.798;9.698;2022-07-21T09:13:09;25.30;99.90
45535;DHT22;35892;48.798;9.698;2022-07-21T09:15:35;25.10;99.90
45535;DHT22;35892;48.798;9.698;2022-07-21T09:18:11;25.00;99.90
45535;DHT22;35892;48.798;9.698;2022-07-21T09:20:50;25.20;99.90
45535;DHT22;35892;48.798;9.698;2022-07-21T09:23:20;25.50;99.90
45535;DHT22;35892;48.798;9.698;2022-07-21T09:25:51;25.80;99.90
45535;DHT22;35892;48.798;9.698;2022-07-21T09:31:05;26.30;99.90
45535;DHT22;35892;48.798;9.698;2022-07-21T09:33:44;26.40;98.40
45535;DHT22;35892;48.798;9.698;2022-07-21T09:36:17;26.30;96.60
45535;DHT22;35892;48.798;9.698;2022-07-21T09:38:51;26.40;96.90
45535;DHT22;35892;48.798;9.698;2022-07-21T09:41:20;26.60;96.50
45535;DHT22;35892;48.798;9.698;2022-07-21T09:43:54;26.80;95.90
45535;DHT22;35892;48.798;9.698;2022-07-21T09:46:25;26.90;96.60
45535;DHT22;35892;48.798;9.698;2022-07-21T09:48:55;26.70;95.90
45535;DHT22;35892;48.798;9.698;2022-07-21T09:51:43;26.40;95.40
45535;DHT22;35892;48.798;9.698;2022-07-21T09:54:12;26.00;96.20
45535;DHT22;35892;48.798;9.698;2022-07-21T09:56:41;25.70;95.60
45535;DHT22;35892;48.798;9.698;2022-07-21T09:59:10;25.40;96.00
45535;DHT22;35892;48.798;9.698;2022-07-21T10:01:38;25.30;96.50
45535;DHT22;35892;48.798;9.698;2022-07-21T10:04:08;25.20;96.70
45535;DHT22;35892;48.798;9.698;2022-07-21T10:06:37;25.30;97.20
45535;DHT22;35892;48.798;9.698;2022-07-21T10:09:07;25.30;96.10
45535;DHT22;35892;48.798;9.698;2022-07-21T10:11:40;25.40;95.70
45535;DHT22;35892;48.798;9.698;2022-07-21T10:14:12;25.30;95.30
45535;DHT22;35892;48.798;9.698;2022-07-21T10:16:41;25.20;96.20
45535;DHT22;35892;48.798;9.698;2022-07-21T10:19:26;25.20;97.00
45535;DHT22;35892;48.798;9.698;2022-07-21T10:22:09;25.30;97.20
45535;DHT22;35892;48.798;9.698;2022-07-21T10:24:38;25.40;97.20
45535;DHT22;35892;48.798;9.698;2022-07-21T10:27:09;25.70;97.20
45535;DHT22;35892;48.798;9.698;2022-07-21T10:32:39;26.30;95.70
45535;DHT22;35892;48.798;9.698;2022-07-21T10:35:29;26.20;93.80
45535;DHT22;35892;48.798;9.698;2022-07-21T10:38:00;26.00;93.30
45535;DHT22;35892;48.798;9.698;2022-07-21T10:48:02;25.30;93.60
45535;DHT22;35892;48.798;9.698;2022-07-21T10:50:32;25.30;94.30
45535;DHT22;35892;48.798;9.698;2022-07-21T10:53:01;25.20;94.90
45535;DHT22;35892;48.798;9.698;2022-07-21T10:55:31;25.20;94.70
45535;DHT22;35892;48.798;9.698;2022-07-21T10:58:16;25.10;93.70
45535;DHT22;35892;48.798;9.698;2022-07-21T11:01:23;25.10;94.30
45535;DHT22;35892;48.798;9.698;2022-07-21T11:04:13;25.10;93.70
45535;DHT22;35892;48.798;9.698;2022-07-21T11:06:44;24.90;93.90
45535;DHT22;35892;48.798;9.698;2022-07-21T11:09:16;25.00;94.50
45535;DHT22;35892;48.798;9.698;2022-07-21T11:14:17;25.20;93.40
45535;DHT22;35892;48.798;9.698;2022-07-21T11:22:12;25.40;92.70
45535;DHT22;35892;48.798;9.698;2022-07-21T11:24:44;25.30;93.50
45535;DHT22;35892;48.798;9.698;2022-07-21T11:27:19;25.30;93.30
45535;DHT22;35892;48.798;9.698;2022-07-21T11:29:51;25.40;93.40
45535;DHT22;35892;48.798;9.698;2022-07-21T11:32:19;25.70;94.00
45535;DHT22;35892;48.798;9.698;2022-07-21T11:34:49;25.80;93.10
45535;DHT22;35892;48.798;9.698;2022-07-21T11:37:27;26.10;91.00
45535;DHT22;35892;48.798;9.698;2022-07-21T11:40:11;26.30;90.40
45535;DHT22;35892;48.798;9.698;2022-07-21T11:42:43;26.50;88.70
45535;DHT22;35892;48.798;9.698;2022-07-21T11:45:14;26.60;87.70
45535;DHT22;35892;48.798;9.698;2022-07-21T11:47:42;26.60;84.10
45535;DHT22;35892;48.798;9.698;2022-07-21T11:50:16;26.70;83.60
45535;DHT22;35892;48.798;9.698;2022-07-21T11:52:43;27.00;81.00
45535;DHT22;35892;48.798;9.698;2022-07-21T11:55:13;27.30;81.10
45535;DHT22;35892;48.798;9.698;2022-07-21T11:57:45;27.50;79.70
45535;DHT22;35892;48.798;9.698;2022-07-21T12:00:13;27.40;77.70
45535;DHT22;35892;48.798;9.698;2022-07-21T12:02:47;27.30;75.10
45535;DHT22;35892;48.798;9.698;2022-07-21T12:05:18;27.00;76.00
45535;DHT22;35892;48.798;9.698;2022-07-21T12:07:47;27.10;78.00
45535;DHT22;35892;48.798;9.698;2022-07-21T12:10:23;27.30;76.70
45535;DHT22;35892;48.798;9.698;2022-07-21T12:12:57;27.30;76.30
45535;DHT22;35892;48.798;9.698;2022-07-21T12:15:30;27.50;74.90
45535;DHT22;35892;48.798;9.698;2022-07-21T12:18:09;27.50;74.80
45535;DHT22;35892;48.798;9.698;2022-07-21T12:20:43;27.50;73.30
45535;DHT22;35892;48.798;9.698;2022-07-21T12:23:23;27.60;74.50
45535;DHT22;35892;48.798;9.698;2022-07-21T12:25:55;28.00;72.80
45535;DHT22;35892;48.798;9.698;2022-07-21T12:28:45;28.20;72.20
45535;DHT22;35892;48.798;9.698;2022-07-21T12:31:16;28.40;71.60
45535;DHT22;35892;48.798;9.698;2022-07-21T12:33:52;28.40;68.90
45535;DHT22;35892;48.798;9.698;2022-07-21T12:36:42;28.40;69.90
45535;DHT22;35892;48.798;9.698;2022-07-21T12:42:27;28.40;67.80
45535;DHT22;35892;48.798;9.698;2022-07-21T12:44:54;28.10;69.10
45535;DHT22;35892;48.798;9.698;2022-07-21T12:47:22;27.90;70.40
45535;DHT22;35892;48.798;9.698;2022-07-21T12:50:03;27.90;69.30
45535;DHT22;35892;48.798;9.698;2022-07-21T12:52:50;28.00;68.70
45535;DHT22;35892;48.798;9.698;2022-07-21T12:55:17;28.20;69.10
45535;DHT22;35892;48.798;9.698;2022-07-21T12:57:46;28.10;68.80
45535;DHT22;35892;48.798;9.698;2022-07-21T13:00:15;27.90;68.80
45535;DHT22;35892;48.798;9.698;2022-07-21T13:02:49;27.70;69.50
45535;DHT22;35892;48.798;9.698;2022-07-21T13:05:17;27.70;69.90
45535;DHT22;35892;48.798;9.698;2022-07-21T13:07:47;27.70;70.30
45535;DHT22;35892;48.798;9.698;2022-07-21T13:10:14;27.80;68.00
45535;DHT22;35892;48.798;9.698;2022-07-21T13:12:44;27.80;67.80
45535;DHT22;35892;48.798;9.698;2022-07-21T13:15:12;27.90;69.30
45535;DHT22;35892;48.798;9.698;2022-07-21T13:17:39;27.90;67.10
45535;DHT22;35892;48.798;9.698;2022-07-21T13:20:06;27.70;67.10
45535;DHT22;35892;48.798;9.698;2022-07-21T13:22:34;27.50;67.80
45535;DHT22;35892;48.798;9.698;2022-07-21T13:25:02;27.90;69.00
45535;DHT22;35892;48.798;9.698;2022-07-21T13:27:31;28.10;70.00
45535;DHT22;35892;48.798;9.698;2022-07-21T13:29:58;28.40;68.80
45535;DHT22;35892;48.798;9.698;2022-07-21T13:32:25;28.40;65.60
45535;DHT22;35892;48.798;9.698;2022-07-21T13:34:52;28.40;65.10
45535;DHT22;35892;48.798;9.698;2022-07-21T13:37:39;28.60;63.90
45535;DHT22;35892;48.798;9.698;2022-07-21T13:40:08;28.90;64.10
45535;DHT22;35892;48.798;9.698;2022-07-21T13:42:55;29.10;64.00
45535;DHT22;35892;48.798;9.698;2022-07-21T13:45:42;29.20;63.20
45535;DHT22;35892;48.798;9.698;2022-07-21T13:48:09;29.20;63.90
45535;DHT22;35892;48.798;9.698;2022-07-21T13:50:38;29.20;62.00
45535;DHT22;35892;48.798;9.698;2022-07-21T13:53:08;29.10;61.80
45535;DHT22;35892;48.798;9.698;2022-07-21T13:55:37;28.90;61.90
45535;DHT22;35892;48.798;9.698;2022-07-21T13:58:04;28.70;63.00
45535;DHT22;35892;48.798;9.698;2022-07-21T14:00:33;28.70;63.00
45535;DHT22;35892;48.798;9.698;2022-07-21T14:03:08;28.50;62.90
45535;DHT22;35892;48.798;9.698;2022-07-21T14:05:37;28.50;63.40
45535;DHT22;35892;48.798;9.698;2022-07-21T14:08:04;28.40;63.20
45535;DHT22;35892;48.798;9.698;2022-07-21T14:10:31;28.30;64.20
45535;DHT22;35892;48.798;9.698;2022-07-21T14:12:59;28.20;62.50
45535;DHT22;35892;48.798;9.698;2022-07-21T14:15:26;28.20;64.20
45535;DHT22;35892;48.798;9.698;2022-07-21T14:17:58;28.40;63.30
45535;DHT22;35892;48.798;9.698;2022-07-21T14:20:25;28.40;63.20
45535;DHT22;35892;48.798;9.698;2022-07-21T14:22:54;28.50;62.90
45535;DHT22;35892;48.798;9.698;2022-07-21T14:25:23;28.40;62.40
45535;DHT22;35892;48.798;9.698;2022-07-21T14:27:52;28.30;63.20
45535;DHT22;35892;48.798;9.698;2022-07-21T14:30:21;28.40;60.90
45535;DHT22;35892;48.798;9.698;2022-07-21T14:32:48;28.70;61.00
45535;DHT22;35892;48.798;9.698;2022-07-21T14:35:18;28.80;60.70
45535;DHT22;35892;48.798;9.698;2022-07-21T14:37:50;28.90;59.80
45535;DHT22;35892;48.798;9.698;2022-07-21T14:40:18;29.10;60.00
45535;DHT22;35892;48.798;9.698;2022-07-21T14:42:49;29.20;59.30
45535;DHT22;35892;48.798;9.698;2022-07-21T14:45:19;29.00;59.10
45535;DHT22;35892;48.798;9.698;2022-07-21T14:47:51;28.90;59.00
45535;DHT22;35892;48.798;9.698;2022-07-21T14:50:21;28.90;59.40
45535;DHT22;35892;48.798;9.698;2022-07-21T14:52:56;28.90;58.90
45535;DHT22;35892;48.798;9.698;2022-07-21T14:55:26;29.10;58.50
45535;DHT22;35892;48.798;9.698;2022-07-21T14:57:55;29.20;58.20
45535;DHT22;35892;48.798;9.698;2022-07-21T15:00:22;29.30;57.90
45535;DHT22;35892;48.798;9.698;2022-07-21T15:02:53;29.10;58.50
45535;DHT22;35892;48.798;9.698;2022-07-21T15:05:21;29.10;59.20
45535;DHT22;35892;48.798;9.698;2022-07-21T15:07:48;28.90;59.50
45535;DHT22;35892;48.798;9.698;2022-07-21T15:10:15;28.80;60.20
45535;DHT22;35892;48.798;9.698;2022-07-21T15:12:42;28.80;60.20
45535;DHT22;35892;48.798;9.698;2022-07-21T15:15:09;28.80;60.60
45535;DHT22;35892;48.798;9.698;2022-07-21T15:17:39;28.80;60.50
45535;DHT22;35892;48.798;9.698;2022-07-21T15:20:07;28.70;60.30
45535;DHT22;35892;48.798;9.698;2022-07-21T15:22:40;28.70;59.30
45535;DHT22;35892;48.798;9.698;2022-07-21T15:25:08;28.60;60.10
45535;DHT22;35892;48.798;9.698;2022-07-21T15:27:42;28.60;60.00
45535;DHT22;35892;48.798;9.698;2022-07-21T15:30:14;28.70;60.70
45535;DHT22;35892;48.798;9.698;2022-07-21T15:32:41;28.80;59.70
45535;DHT22;35892;48.798;9.698;2022-07-21T15:35:09;28.90;59.90
45535;DHT22;35892;48.798;9.698;2022-07-21T15:37:37;29.10;58.20
45535;DHT22;35892;48.798;9.698;2022-07-21T15:40:07;30.00;56.20
45535;DHT22;35892;48.798;9.698;2022-07-21T15:42:39;31.60;52.70
45535;DHT22;35892;48.798;9.698;2022-07-21T15:45:14;32.80;50.30
45535;DHT22;35892;48.798;9.698;2022-07-21T15:47:40;34.10;47.80
45535;DHT22;35892;48.798;9.698;2022-07-21T15:50:12;34.90;46.70
45535;DHT22;35892;48.798;9.698;2022-07-21T15:52:40;35.70;45.00
45535;DHT22;35892;48.798;9.698;2022-07-21T15:55:08;36.00;42.60
45535;DHT22;35892;48.798;9.698;2022-07-21T15:57:35;35.30;42.90
45535;DHT22;35892;48.798;9.698;2022-07-21T16:00:08;35.70;42.80
45535;DHT22;35892;48.798;9.698;2022-07-21T16:02:35;36.00;42.30
45535;DHT22;35892;48.798;9.698;2022-07-21T16:05:09;36.30;41.30
45535;DHT22;35892;48.798;9.698;2022-07-21T16:07:36;36.30;40.80
45535;DHT22;35892;48.798;9.698;2022-07-21T16:10:06;35.60;41.40
45535;DHT22;35892;48.798;9.698;2022-07-21T16:12:35;35.30;41.20
45535;DHT22;35892;48.798;9.698;2022-07-21T16:15:03;35.90;41.20